Hlavní strana
METAR-TAF:

METAR-TAF

Letiště :

Ålesund, Norsko

zeměpisná šířka: 62-34N, zeměpisná délka: 006-07E, výška: 2 m

Aktuální stav počasí

Zpráva byla vytvořena před 18 minutami, v 04:20 UTC
Jihovýchodní vítr 6 kt
Teplota 7°C
Vlhkost vzduchu 93%
Tlak 1040 hPa
Viditelnost 10 km a více

METAR: ENAL 180420Z AUTO 14006KT 9999 OVC013/// 07/06 Q1040

Čas: 05:38 (04:38 UTC)

Předpověď počasí

Zpráva byla vytvořena před 2 hodinami a 38 minutami, v 02:00 UTC
Předpověď platná od 18 v 03 UTC do 18 v 12 UTC
vítr z různých směrů 5 kt
Viditelnost 10 km a více
Polojasno ve výšce 1000 ft
Dočasný
od 18 v 03 UTC do 18 v 12 UTC
Oblačno až skoro zataženo ve výšce 800 ft
Pravděpodobnost 30%
od 18 v 03 UTC do 18 v 06 UTC
Viditelnost: 2000 m
Oblačno až skoro zataženo ve výšce 200 ft
chuchvalce mlhy

TAF: ENAL 180200Z 1803/1812 VRB05KT 9999 SCT010 TEMPO 1803/1812 BKN008 PROB30 1803/1806 2000 BCFG BKN002

Stav a předpovědi počasí z více než 4 000 letišť (zprávy METAR a TAF).

Červené a žluté tečky na mapě představují dostupné meteorologické stanice.

Když kurzor umístíte na tečku, zobrazí se název stanice.

Pak kliknutím zobrazíte stav a předpověď počasí.

Chcete-li změnit mapu, kliknutím na zelené tlačítko se znaménkem +mapu přiblížíte, kliknutím na zelené tlačítko se znaménkem – mapu oddálíte a kliknutím na zelené šipky přejdete na sousední mapy.


METAR-TAF: